createdAt,value
2023-11-13T00:02:51.660Z,100208.50
2023-11-13T00:05:54.403Z,100212.94
2023-11-13T00:08:57.106Z,100221.22
2023-11-13T00:12:00.010Z,100228.88
2023-11-13T00:15:05.297Z,100236.94
2023-11-13T00:18:08.418Z,100235.59
2023-11-13T00:21:12.597Z,100237.47
2023-11-13T00:24:15.342Z,100235.59
2023-11-13T00:27:18.138Z,100237.38
2023-11-13T00:30:21.528Z,100247.19
2023-11-13T00:33:24.239Z,100244.19
2023-11-13T00:36:26.998Z,100243.50
2023-11-13T00:39:31.659Z,100250.63
2023-11-13T00:42:34.405Z,100243.47
2023-11-13T00:45:37.348Z,100240.34
2023-11-13T00:48:41.503Z,100254.41
2023-11-13T00:51:44.397Z,100250.25
2023-11-13T00:54:47.179Z,100250.94
2023-11-13T00:57:50.216Z,100245.88
2023-11-13T01:00:53.035Z,100240.69
2023-11-13T01:03:56.150Z,100244.28
2023-11-13T01:06:59.216Z,100247.72
2023-11-13T01:10:02.034Z,100244.28
2023-11-13T01:13:04.852Z,100239.47
2023-11-13T01:16:07.955Z,100241.47
2023-11-13T01:19:10.801Z,100251.66
2023-11-13T01:22:13.702Z,100244.72
2023-11-13T01:25:16.576Z,100246.34
2023-11-13T01:28:19.468Z,100249.16
2023-11-13T01:31:22.766Z,100251.88
2023-11-13T01:34:26.002Z,100248.59
2023-11-13T01:37:28.728Z,100249.09
2023-11-13T01:40:33.002Z,100253.03
2023-11-13T01:43:35.764Z,100256.16
2023-11-13T01:46:38.864Z,100256.25
2023-11-13T01:49:42.584Z,100275.63
2023-11-13T01:52:45.736Z,100271.19
2023-11-13T01:55:48.842Z,100264.25
2023-11-13T01:58:52.626Z,100274.31
2023-11-13T02:01:56.579Z,100276.31
2023-11-13T02:04:59.319Z,100272.63
2023-11-13T02:08:02.159Z,100268.25
2023-11-13T02:11:07.828Z,100269.06
2023-11-13T02:14:10.704Z,100266.50
2023-11-13T02:17:13.418Z,100273.63
2023-11-13T02:20:16.126Z,100283.78
2023-11-13T02:23:19.436Z,100281.06
2023-11-13T02:26:25.309Z,100278.81
2023-11-13T02:29:28.356Z,100274.53
2023-11-13T02:32:31.057Z,100269.59
2023-11-13T02:35:33.989Z,100268.94
2023-11-13T02:38:38.244Z,100264.25
2023-11-13T02:41:41.000Z,100260.88
2023-11-13T02:44:43.838Z,100270.84
2023-11-13T02:47:46.577Z,100283.50
2023-11-13T02:50:53.139Z,100297.41
2023-11-13T02:53:57.167Z,100293.63
2023-11-13T02:56:59.913Z,100301.44
2023-11-13T03:00:02.749Z,100315.75
2023-11-13T03:03:05.556Z,100314.06
2023-11-13T03:06:08.451Z,100315.44
2023-11-13T03:09:12.198Z,100313.84
2023-11-13T03:12:14.946Z,100310.06
2023-11-13T03:15:17.759Z,100319.50
2023-11-13T03:18:20.578Z,100336.84
2023-11-13T03:21:24.635Z,100326.66
2023-11-13T03:24:27.403Z,100340.66
2023-11-13T03:27:30.103Z,100339.78
2023-11-13T03:30:33.499Z,100340.94
2023-11-13T03:33:36.637Z,100339.19
2023-11-13T03:36:39.476Z,100334.88
2023-11-13T03:39:43.643Z,100340.28
2023-11-13T03:42:46.313Z,100335.81
2023-11-13T03:45:49.091Z,100329.53
2023-11-13T03:48:51.816Z,100323.78
2023-11-13T03:51:55.808Z,100315.31
2023-11-13T03:54:58.946Z,100318.38
2023-11-13T03:58:01.702Z,100324.53
2023-11-13T04:01:04.650Z,100312.84
2023-11-13T04:04:07.503Z,100311.63
2023-11-13T04:07:10.584Z,100322.19
2023-11-13T04:10:16.384Z,100315.22
2023-11-13T04:13:21.329Z,100311.38
2023-11-13T04:16:24.221Z,100311.94
2023-11-13T04:19:31.148Z,100313.25
2023-11-13T04:22:35.077Z,100303.53
2023-11-13T04:25:37.805Z,100304.84
2023-11-13T04:28:41.571Z,100311.69
2023-11-13T04:31:46.244Z,100308.56
2023-11-13T04:34:48.994Z,100319.84
2023-11-13T04:37:51.659Z,100312.72
2023-11-13T04:40:54.448Z,100314.25
2023-11-13T04:43:57.177Z,100312.75
2023-11-13T04:47:00.031Z,100304.34
2023-11-13T04:50:06.808Z,100303.25
2023-11-13T04:53:09.600Z,100311.06
2023-11-13T04:56:13.152Z,100309.41
2023-11-13T04:59:15.847Z,100303.81
2023-11-13T05:02:20.114Z,100301.75
2023-11-13T05:05:22.840Z,100303.84
2023-11-13T05:08:26.727Z,100296.38
2023-11-13T05:11:29.410Z,100299.75
2023-11-13T05:14:32.124Z,100292.59
2023-11-13T05:17:38.612Z,100297.31
2023-11-13T05:20:47.049Z,100311.56
2023-11-13T05:23:51.039Z,100311.06
2023-11-13T05:26:54.935Z,100316.00
2023-11-13T05:29:57.705Z,100315.59
2023-11-13T05:33:00.715Z,100317.72
2023-11-13T05:36:03.861Z,100327.16
2023-11-13T05:39:09.094Z,100333.44
2023-11-13T05:42:11.838Z,100334.50
2023-11-13T05:45:16.085Z,100327.44
2023-11-13T05:48:18.927Z,100335.81
2023-11-13T05:51:22.531Z,100337.91
2023-11-13T05:54:26.005Z,100330.81
2023-11-13T05:57:28.800Z,100341.84
2023-11-13T06:00:32.394Z,100344.81
2023-11-13T06:03:35.200Z,100347.69
2023-11-13T06:06:38.018Z,100358.94
2023-11-13T06:09:43.611Z,100356.63
2023-11-13T06:12:46.463Z,100369.59
2023-11-13T06:15:49.343Z,100367.50
2023-11-13T06:18:52.344Z,100359.09
2023-11-13T06:21:55.426Z,100357.75
2023-11-13T06:24:58.621Z,100362.81
2023-11-13T06:28:01.689Z,100354.84
2023-11-13T06:31:04.643Z,100364.63
2023-11-13T06:34:09.272Z,100374.16
2023-11-13T06:37:12.015Z,100392.06
2023-11-13T06:40:18.414Z,100400.25
2023-11-13T06:43:21.752Z,100408.41
2023-11-13T06:46:24.542Z,100416.59
2023-11-13T06:49:27.584Z,100420.56
2023-11-13T06:52:32.789Z,100402.34
2023-11-13T06:55:35.765Z,100408.41
2023-11-13T06:58:38.922Z,100419.25
2023-11-13T07:01:44.785Z,100423.72
2023-11-13T07:04:47.652Z,100417.41
2023-11-13T07:07:52.256Z,100418.94
2023-11-13T07:10:55.521Z,100416.28
2023-11-13T07:13:58.229Z,100416.88
2023-11-13T07:17:01.225Z,100406.13
2023-11-13T07:20:07.909Z,100407.19
2023-11-13T07:23:17.965Z,100404.28
2023-11-13T07:26:20.896Z,100405.06
2023-11-13T07:29:23.668Z,100403.72
2023-11-13T07:32:26.526Z,100414.06
2023-11-13T07:35:29.751Z,100413.25
2023-11-13T07:38:32.600Z,100412.19
2023-11-13T07:41:35.285Z,100413.81
2023-11-13T07:44:40.246Z,100408.53
2023-11-13T07:47:43.929Z,100401.13
2023-11-13T07:50:57.239Z,100391.94
2023-11-13T07:54:02.016Z,100386.94
2023-11-13T07:57:05.353Z,100394.03
2023-11-13T08:00:11.484Z,100399.03
2023-11-13T08:03:19.974Z,100394.69
2023-11-13T08:06:22.698Z,100389.50
2023-11-13T08:09:25.385Z,100387.69
2023-11-13T08:12:30.259Z,100380.00
2023-11-13T08:15:33.465Z,100388.97
2023-11-13T08:18:36.359Z,100402.22
2023-11-13T08:21:39.034Z,100399.88
2023-11-13T08:24:43.062Z,100393.94
2023-11-13T08:27:47.875Z,100404.66
2023-11-13T08:30:50.585Z,100418.34
2023-11-13T08:33:56.569Z,100419.47
2023-11-13T08:37:01.862Z,100419.50
2023-11-13T08:40:06.852Z,100406.28
2023-11-13T08:43:12.823Z,100408.75
2023-11-13T08:46:16.271Z,100408.13
2023-11-13T08:49:19.000Z,100400.81
2023-11-13T08:52:21.772Z,100406.47
2023-11-13T08:55:26.267Z,100394.94
2023-11-13T08:58:29.174Z,100383.00
2023-11-13T09:01:32.288Z,100379.78
2023-11-13T09:04:36.200Z,100376.44
2023-11-13T09:07:39.177Z,100372.69
2023-11-13T09:10:46.196Z,100377.84
2023-11-13T09:13:49.340Z,100382.34
2023-11-13T09:16:52.279Z,100369.31
2023-11-13T09:19:55.122Z,100362.50
2023-11-13T09:23:01.162Z,100364.81
2023-11-13T09:26:06.038Z,100357.25
2023-11-13T09:29:12.076Z,100356.84
2023-11-13T09:32:15.661Z,100353.59
2023-11-13T09:35:25.722Z,100354.97
2023-11-13T09:38:32.518Z,100363.41
2023-11-13T09:41:40.216Z,100373.66
2023-11-13T09:44:53.836Z,100379.69
2023-11-13T09:48:05.534Z,100370.97
2023-11-13T09:51:16.622Z,100369.84
2023-11-13T09:54:30.188Z,100365.28
2023-11-13T09:57:33.988Z,100345.53
2023-11-13T10:00:37.317Z,100348.44
2023-11-13T10:03:40.222Z,100348.97
2023-11-13T10:06:53.435Z,100344.25
2023-11-13T10:10:04.147Z,100344.66
2023-11-13T10:13:11.463Z,100348.34
2023-11-13T10:16:24.058Z,100339.00
2023-11-13T10:19:27.854Z,100336.38
2023-11-13T10:22:30.547Z,100331.56
2023-11-13T10:25:58.821Z,100330.78
2023-11-13T10:29:19.036Z,100328.56
2023-11-13T11:26:35.184Z,100283.09
2023-11-13T11:29:42.005Z,100275.94
2023-11-13T11:32:56.462Z,100280.22
2023-11-13T11:35:59.687Z,100258.22
2023-11-13T11:39:13.244Z,100256.19
2023-11-13T11:42:28.538Z,100253.81
2023-11-13T11:45:31.280Z,100259.78
2023-11-13T11:48:36.449Z,100244.00
2023-11-13T11:51:40.227Z,100244.22
2023-11-13T11:54:43.005Z,100245.50
2023-11-13T11:57:47.218Z,100241.78
2023-11-13T12:00:50.015Z,100254.34
2023-11-13T12:03:53.848Z,100237.44
2023-11-13T12:06:57.350Z,100241.78
2023-11-13T12:10:01.493Z,100231.47
2023-11-13T12:13:05.200Z,100226.56
2023-11-13T12:16:08.186Z,100232.44
2023-11-13T12:19:11.798Z,100237.38
2023-11-13T12:22:14.590Z,100232.22
2023-11-13T12:25:17.715Z,100229.00
2023-11-13T12:28:22.357Z,100220.03
2023-11-13T12:31:25.464Z,100206.31
2023-11-13T12:34:31.779Z,100202.09
2023-11-13T12:37:35.584Z,100207.94
2023-11-13T12:40:38.918Z,100201.72
2023-11-13T12:43:44.793Z,100208.31
2023-11-13T12:46:49.357Z,100214.75
2023-11-13T12:49:52.731Z,100218.50
2023-11-13T12:52:56.738Z,100210.78
2023-11-13T12:55:59.523Z,100204.94
2023-11-13T12:59:02.319Z,100192.72
2023-11-13T13:02:05.875Z,100186.97
2023-11-13T13:05:22.942Z,100185.63
2023-11-13T13:08:33.133Z,100182.63
2023-11-13T13:11:39.604Z,100194.56
2023-11-13T13:14:42.856Z,100188.84
2023-11-13T13:17:45.798Z,100190.69
2023-11-13T13:20:48.991Z,100204.31
2023-11-13T13:23:51.688Z,100202.88
2023-11-13T13:26:57.177Z,100192.66
2023-11-13T13:29:59.996Z,100190.34
2023-11-13T13:33:07.459Z,100192.16
2023-11-13T13:36:10.780Z,100193.00
2023-11-13T13:39:16.156Z,100186.28
2023-11-13T13:42:19.049Z,100184.84
2023-11-13T13:45:26.320Z,100178.63
2023-11-13T13:48:33.219Z,100183.38
2023-11-13T13:51:39.108Z,100185.97
2023-11-13T13:54:42.344Z,100190.19
2023-11-13T13:57:46.994Z,100187.56
2023-11-13T14:00:50.571Z,100187.72
2023-11-13T14:03:56.730Z,100177.53
2023-11-13T14:07:01.897Z,100176.97
2023-11-13T14:10:04.841Z,100174.66
2023-11-13T14:13:07.605Z,100179.72
2023-11-13T14:16:10.809Z,100178.47
2023-11-13T14:19:15.822Z,100184.13
2023-11-13T14:22:23.210Z,100174.69
2023-11-13T14:25:28.228Z,100181.00
2023-11-13T14:28:32.330Z,100179.50
2023-11-13T14:31:35.163Z,100169.75
2023-11-13T14:34:38.616Z,100169.34
2023-11-13T14:37:41.396Z,100179.50
2023-11-13T14:40:44.148Z,100183.53
2023-11-13T14:43:46.980Z,100190.50
2023-11-13T14:46:50.716Z,100197.75
2023-11-13T14:49:53.435Z,100208.91
2023-11-13T14:52:56.779Z,100217.06
2023-11-13T14:56:00.048Z,100208.44
2023-11-13T14:59:07.116Z,100205.00
2023-11-13T15:02:10.754Z,100198.72
2023-11-13T15:05:13.588Z,100195.78
2023-11-13T15:08:18.193Z,100193.09
2023-11-13T15:11:21.740Z,100181.63
2023-11-13T15:14:24.494Z,100172.44
2023-11-13T15:17:30.563Z,100159.91
2023-11-13T15:20:35.542Z,100168.00
2023-11-13T15:23:46.161Z,100176.22
2023-11-13T15:26:49.935Z,100172.41
2023-11-13T15:29:52.660Z,100169.28
2023-11-13T15:33:01.107Z,100170.41
2023-11-13T15:36:04.142Z,100162.84
2023-11-13T15:39:09.973Z,100160.56
2023-11-13T15:42:13.572Z,100152.22
2023-11-13T15:45:16.349Z,100146.94
2023-11-13T15:48:19.015Z,100143.81
2023-11-13T15:51:21.722Z,100138.38
2023-11-13T15:54:24.595Z,100143.38
2023-11-13T15:57:27.783Z,100147.47
2023-11-13T16:00:30.986Z,100139.59
2023-11-13T16:03:40.324Z,100143.03
2023-11-13T16:06:47.155Z,100144.28
2023-11-13T16:09:50.082Z,100142.66
2023-11-13T16:12:53.290Z,100147.44
2023-11-13T16:15:55.977Z,100147.53
2023-11-13T16:18:58.781Z,100142.41
2023-11-13T16:22:01.521Z,100150.16
2023-11-13T16:25:08.429Z,100147.06
2023-11-13T16:28:11.808Z,100156.06
2023-11-13T16:31:14.637Z,100156.94
2023-11-13T16:34:19.541Z,100158.78
2023-11-13T16:37:22.435Z,100156.81
2023-11-13T16:40:25.256Z,100164.44
2023-11-13T16:43:28.055Z,100161.38
2023-11-13T16:46:30.761Z,100165.25
2023-11-13T16:49:35.721Z,100161.31
2023-11-13T16:52:39.545Z,100166.78
2023-11-13T16:55:42.500Z,100170.44
2023-11-13T16:58:45.247Z,100164.88
2023-11-13T17:01:48.367Z,100162.16
2023-11-13T17:04:51.175Z,100161.59
2023-11-13T17:07:54.048Z,100154.34
2023-11-13T17:10:58.371Z,100145.22
2023-11-13T17:14:01.199Z,100145.75
2023-11-13T17:17:04.210Z,100145.44
2023-11-13T17:20:09.313Z,100147.28
2023-11-13T17:23:13.013Z,100152.59
2023-11-13T17:26:15.682Z,100142.25
2023-11-13T17:29:18.419Z,100138.81
2023-11-13T17:32:21.410Z,100136.06
2023-11-13T17:35:24.237Z,100131.00
2023-11-13T17:38:27.055Z,100140.44
2023-11-13T17:41:30.415Z,100146.06
2023-11-13T17:44:34.059Z,100127.00
2023-11-13T17:47:37.110Z,100124.22
2023-11-13T17:50:40.309Z,100125.88
2023-11-13T17:53:43.140Z,100117.22
2023-11-13T17:56:48.885Z,100107.81
2023-11-13T17:59:51.663Z,100108.41
2023-11-13T18:02:54.751Z,100106.09
2023-11-13T18:05:57.515Z,100100.31
2023-11-13T18:09:00.518Z,100101.69
2023-11-13T18:12:04.663Z,100101.94
2023-11-13T18:15:10.574Z,100113.84
2023-11-13T18:18:13.548Z,100112.81
2023-11-13T18:21:16.363Z,100104.09
2023-11-13T18:24:19.772Z,100114.09
2023-11-13T18:27:22.623Z,100116.88
2023-11-13T18:30:25.678Z,100122.25
2023-11-13T18:33:30.944Z,100125.09
2023-11-13T18:36:34.691Z,100132.50
2023-11-13T18:39:39.055Z,100130.94
2023-11-13T18:42:42.288Z,100131.22
2023-11-13T18:45:46.690Z,100121.81
2023-11-13T18:48:49.454Z,100116.03
2023-11-13T18:51:52.334Z,100121.81
2023-11-13T18:54:55.118Z,100114.84
2023-11-13T18:57:58.702Z,100107.75
2023-11-13T19:01:01.626Z,100110.81
2023-11-13T19:04:04.916Z,100109.59
2023-11-13T19:07:08.480Z,100101.47
2023-11-13T19:10:11.271Z,100105.91
2023-11-13T19:13:14.508Z,100096.63
2023-11-13T19:16:17.317Z,100084.25
2023-11-13T19:19:20.055Z,100091.31
2023-11-13T19:22:23.126Z,100094.97
2023-11-13T19:25:26.714Z,100079.84
2023-11-13T19:28:30.072Z,100070.22
2023-11-13T19:31:33.115Z,100080.28
2023-11-13T19:34:36.278Z,100076.34
2023-11-13T19:37:39.025Z,100083.19
2023-11-13T19:40:42.926Z,100084.28
2023-11-13T19:43:47.746Z,100085.91
2023-11-13T19:46:51.588Z,100082.16
2023-11-13T19:49:54.694Z,100085.31
2023-11-13T19:52:57.686Z,100080.03
2023-11-13T19:56:00.990Z,100067.25
2023-11-13T19:59:04.880Z,100072.34
2023-11-13T20:02:07.933Z,100076.97
2023-11-13T20:05:11.123Z,100075.53
2023-11-13T20:08:14.423Z,100072.94
2023-11-13T20:11:24.388Z,100083.97
2023-11-13T20:14:27.463Z,100085.81
2023-11-13T20:17:31.692Z,100073.91
2023-11-13T20:20:36.666Z,100071.03
2023-11-13T20:23:39.340Z,100079.28
2023-11-13T20:26:42.407Z,100074.28
2023-11-13T20:29:45.887Z,100076.66
2023-11-13T20:32:50.452Z,100075.03
2023-11-13T20:35:53.910Z,100071.59
2023-11-13T20:38:57.684Z,100067.38
2023-11-13T20:42:01.044Z,100065.53
2023-11-13T20:45:05.979Z,100061.53
2023-11-13T20:48:09.814Z,100062.03
2023-11-13T20:51:12.714Z,100055.47
2023-11-13T20:54:15.760Z,100042.53
2023-11-13T20:57:18.607Z,100049.13
2023-11-13T21:00:21.637Z,100044.13
2023-11-13T21:03:24.692Z,100044.91
2023-11-13T21:06:27.559Z,100048.88
2023-11-13T21:09:31.567Z,100049.13
2023-11-13T21:12:34.939Z,100038.03
2023-11-13T21:15:37.933Z,100046.63
2023-11-13T21:18:40.633Z,100039.25
2023-11-13T21:21:43.312Z,100047.69
2023-11-13T21:24:46.065Z,100047.91
2023-11-13T21:27:48.786Z,100031.22
2023-11-13T21:30:52.187Z,100019.72
2023-11-13T21:33:55.211Z,100016.94
2023-11-13T21:36:57.943Z,100001.66
2023-11-13T21:40:00.671Z,99993.00
2023-11-13T21:43:03.335Z,99987.09
2023-11-13T21:46:09.340Z,99982.09
2023-11-13T21:49:12.061Z,99988.66
2023-11-13T21:52:14.984Z,99979.09
2023-11-13T21:55:17.812Z,99971.88
2023-11-13T21:58:20.878Z,99949.31
2023-11-13T22:01:24.785Z,99947.06
2023-11-13T22:04:27.850Z,99956.94
2023-11-13T22:07:30.565Z,99956.66
2023-11-13T22:10:33.919Z,99971.31
2023-11-13T22:13:37.699Z,99974.78
2023-11-13T22:16:40.480Z,99975.78
2023-11-13T22:19:43.218Z,99973.88
2023-11-13T22:22:46.030Z,99965.38
2023-11-13T22:25:49.006Z,99961.84
2023-11-13T22:28:51.792Z,99955.66
2023-11-13T22:31:54.616Z,99956.66
2023-11-13T22:34:57.448Z,99949.56
2023-11-13T22:38:00.248Z,99942.56
2023-11-13T22:41:04.477Z,99942.94
2023-11-13T22:44:07.876Z,99937.53
2023-11-13T22:47:11.907Z,99941.34
2023-11-13T22:50:14.648Z,99933.78
2023-11-13T22:53:17.390Z,99924.84
2023-11-13T22:56:20.177Z,99916.78
2023-11-13T22:59:22.816Z,99909.41
2023-11-13T23:02:25.575Z,99908.06
2023-11-13T23:05:28.654Z,99893.34
2023-11-13T23:08:31.427Z,99881.97
2023-11-13T23:11:34.117Z,99886.91
2023-11-13T23:14:38.410Z,99893.28
2023-11-13T23:17:41.830Z,99892.00
2023-11-13T23:20:44.672Z,99887.41
2023-11-13T23:23:47.747Z,99885.94
2023-11-13T23:26:50.463Z,99870.19
2023-11-13T23:29:53.087Z,99872.53
2023-11-13T23:32:55.924Z,99874.75
2023-11-13T23:35:59.130Z,99873.13
2023-11-13T23:39:01.826Z,99879.00
2023-11-13T23:42:05.069Z,99882.78
2023-11-13T23:45:08.248Z,99872.81
2023-11-13T23:48:10.906Z,99873.34
2023-11-13T23:51:13.665Z,99868.00
2023-11-13T23:54:16.324Z,99871.94
2023-11-13T23:57:19.051Z,99868.84
